createdAt,value
2023-11-12T00:04:35.396Z,91.44
2023-11-12T00:09:58.227Z,92.36
2023-11-12T00:15:21.862Z,89.64
2023-11-12T00:20:46.245Z,93.06
2023-11-12T00:26:09.201Z,91.90
2023-11-12T00:31:32.170Z,90.04
2023-11-12T00:36:56.449Z,94.13
2023-11-12T00:42:19.659Z,92.91
2023-11-12T00:47:42.754Z,92.66
2023-11-12T00:53:07.113Z,91.45
2023-11-12T00:58:30.049Z,92.94
2023-11-12T01:03:53.121Z,93.83
2023-11-12T01:09:17.471Z,91.95
2023-11-12T01:14:40.531Z,91.63
2023-11-12T01:20:04.449Z,91.54
2023-11-12T01:25:28.966Z,90.01
2023-11-12T01:30:52.448Z,90.84
2023-11-12T01:36:15.582Z,90.05
2023-11-12T01:41:40.014Z,88.49
2023-11-12T01:47:04.662Z,87.46
2023-11-12T01:52:27.855Z,89.38
2023-11-12T01:57:53.953Z,90.34
2023-11-12T02:03:22.366Z,91.88
2023-11-12T02:08:46.180Z,89.94
2023-11-12T02:14:11.230Z,88.35
2023-11-12T02:19:34.259Z,91.33
2023-11-12T02:24:58.538Z,89.19
2023-11-12T02:30:21.709Z,88.90
2023-11-12T02:35:47.612Z,87.41
2023-11-12T02:41:13.974Z,90.20
2023-11-12T02:46:37.147Z,89.36
2023-11-12T02:52:00.076Z,89.91
2023-11-12T02:57:24.510Z,89.60
2023-11-12T03:02:48.006Z,89.00
2023-11-12T03:08:10.965Z,89.43
2023-11-12T03:13:35.334Z,88.76
2023-11-12T03:18:58.304Z,90.40
2023-11-12T03:24:21.262Z,89.08
2023-11-12T03:29:47.139Z,90.41
2023-11-12T03:35:10.495Z,89.73
2023-11-12T03:40:33.549Z,89.43
2023-11-12T03:45:57.848Z,90.22
2023-11-12T03:51:20.875Z,89.72
2023-11-12T03:56:43.885Z,89.78
2023-11-12T04:02:08.135Z,88.08
2023-11-12T04:07:31.187Z,88.99
2023-11-12T04:12:54.188Z,89.64
2023-11-12T04:18:18.586Z,90.88
2023-11-12T04:23:45.137Z,89.57
2023-11-12T04:29:08.990Z,89.29
2023-11-12T04:34:33.346Z,89.70
2023-11-12T04:39:56.425Z,89.47
2023-11-12T04:45:21.321Z,88.54
2023-11-12T04:50:46.632Z,86.18
2023-11-12T04:56:10.363Z,87.42
2023-11-12T05:01:33.696Z,86.01
2023-11-12T05:06:58.205Z,89.03
2023-11-12T05:12:22.190Z,89.61
2023-11-12T05:17:45.358Z,88.31
2023-11-12T05:23:09.747Z,88.15
2023-11-12T05:28:32.869Z,89.07
2023-11-12T05:33:55.817Z,90.70
2023-11-12T05:39:21.013Z,93.06
2023-11-12T05:44:43.984Z,92.50
2023-11-12T05:50:07.963Z,92.45
2023-11-12T05:55:32.309Z,92.61
2023-11-12T06:00:56.688Z,92.34
2023-11-12T06:06:19.707Z,95.58
2023-11-12T06:11:43.944Z,96.98
2023-11-12T06:17:06.849Z,100.00
2023-11-12T06:22:29.819Z,100.00
2023-11-12T06:27:54.159Z,100.00
2023-11-12T06:33:17.280Z,100.00
2023-11-12T06:38:40.276Z,100.00
2023-11-12T06:44:04.833Z,100.00
2023-11-12T06:49:27.763Z,100.00
2023-11-12T06:54:50.920Z,99.94
2023-11-12T07:00:17.792Z,95.01
2023-11-12T07:05:41.384Z,93.44
2023-11-12T07:11:05.022Z,99.62
2023-11-12T07:16:29.313Z,99.37
2023-11-12T07:21:52.606Z,97.05
2023-11-12T07:27:15.599Z,99.53
2023-11-12T07:32:39.881Z,99.03
2023-11-12T07:38:02.915Z,96.44
2023-11-12T07:43:26.364Z,95.14
2023-11-12T07:48:51.811Z,91.00
2023-11-12T07:54:15.250Z,90.13
2023-11-12T07:59:38.310Z,90.69
2023-11-12T08:05:09.468Z,89.10
2023-11-12T08:10:32.878Z,90.33
2023-11-12T08:15:55.817Z,88.25
2023-11-12T08:21:20.350Z,88.96
2023-11-12T08:26:43.472Z,87.06
2023-11-12T08:32:07.535Z,86.95
2023-11-12T08:37:31.977Z,86.09
2023-11-12T08:42:55.321Z,86.45
2023-11-12T08:48:19.235Z,85.98
2023-11-12T08:53:43.828Z,84.82
2023-11-12T08:59:08.391Z,85.80
2023-11-12T09:04:31.437Z,85.21
2023-11-12T09:09:56.648Z,84.82
2023-11-12T09:15:19.707Z,85.43
2023-11-12T09:20:44.501Z,86.00
2023-11-12T09:26:09.540Z,85.47
2023-11-12T09:31:33.031Z,84.79
2023-11-12T09:36:57.377Z,82.43
2023-11-12T09:42:24.793Z,82.01
2023-11-12T09:47:57.725Z,79.31
2023-11-12T09:53:20.789Z,80.32
2023-11-12T09:58:47.390Z,76.70
2023-11-12T10:04:11.007Z,75.03
2023-11-12T10:09:35.984Z,76.33
2023-11-12T10:15:03.344Z,75.86
2023-11-12T10:20:28.263Z,78.28
2023-11-12T10:25:51.442Z,77.11
2023-11-12T10:31:15.879Z,75.90
2023-11-12T10:36:38.891Z,72.38
2023-11-12T10:42:01.973Z,71.04
2023-11-12T10:47:27.644Z,73.23
2023-11-12T10:52:51.192Z,71.74
2023-11-12T10:58:16.211Z,68.78
2023-11-12T11:03:40.583Z,67.99
2023-11-12T11:09:04.090Z,68.06
2023-11-12T11:14:29.138Z,67.81
2023-11-12T11:19:56.931Z,71.28
2023-11-12T11:25:26.260Z,71.13
2023-11-12T11:31:11.768Z,73.00
2023-11-12T11:36:36.713Z,71.00
2023-11-12T11:42:30.109Z,72.47
2023-11-12T11:48:06.313Z,67.36
2023-11-12T11:53:30.667Z,62.31
2023-11-12T11:58:54.814Z,62.26
2023-11-12T12:04:18.729Z,65.33
2023-11-12T12:09:43.066Z,65.83
2023-11-12T12:15:09.161Z,65.80
2023-11-12T12:20:39.828Z,65.45
2023-11-12T12:26:04.376Z,66.19
2023-11-12T12:31:29.823Z,66.38
2023-11-12T12:37:03.308Z,68.06
2023-11-12T12:42:29.041Z,65.50
2023-11-12T12:47:56.792Z,62.22
2023-11-12T12:53:23.458Z,60.99
2023-11-12T12:58:48.313Z,59.83
2023-11-12T13:04:12.887Z,59.33
2023-11-12T13:09:36.406Z,59.60
2023-11-12T13:15:00.775Z,60.90
2023-11-12T13:20:27.917Z,59.77
2023-11-12T13:25:52.730Z,61.44
2023-11-12T13:31:17.048Z,62.19
2023-11-12T13:36:40.741Z,63.30
2023-11-12T13:42:04.702Z,64.76
2023-11-12T13:47:29.081Z,65.26
2023-11-12T13:52:53.242Z,66.41
2023-11-12T13:58:16.715Z,66.25
2023-11-12T14:03:41.861Z,65.89
2023-11-12T14:09:05.208Z,67.23
2023-11-12T14:14:28.315Z,66.21
2023-11-12T14:19:54.570Z,65.39
2023-11-12T14:25:20.211Z,66.13
2023-11-12T14:30:43.467Z,66.30
2023-11-12T14:36:11.987Z,65.79
2023-11-12T14:50:04.321Z,64.46
2023-11-12T14:55:28.833Z,64.99
2023-11-12T15:00:52.533Z,63.98
2023-11-12T15:06:17.159Z,64.01
2023-11-12T15:11:41.718Z,65.49
2023-11-12T15:17:05.655Z,65.29
2023-11-12T15:22:31.472Z,66.65
2023-11-12T15:27:55.197Z,64.83
2023-11-12T15:33:18.393Z,65.58
2023-11-12T15:38:42.901Z,66.33
2023-11-12T15:44:06.934Z,65.42
2023-11-12T15:49:30.069Z,65.06
2023-11-12T15:55:03.758Z,66.49
2023-11-12T16:00:29.931Z,69.79
2023-11-12T16:06:00.962Z,69.97
2023-11-12T16:11:30.487Z,72.02
2023-11-12T16:16:57.814Z,74.09
2023-11-12T16:22:28.130Z,72.53
2023-11-12T16:33:47.230Z,73.70
2023-11-12T16:39:20.904Z,74.31
2023-11-12T16:44:53.121Z,73.43
2023-11-12T16:56:02.968Z,75.12
2023-11-12T17:01:56.639Z,76.28
2023-11-12T17:07:46.574Z,74.65
2023-11-12T17:13:21.228Z,75.03
2023-11-12T17:18:51.435Z,76.10
2023-11-12T17:24:17.561Z,74.63
2023-11-12T17:29:49.797Z,74.05
2023-11-12T17:35:27.664Z,74.29
2023-11-12T17:41:01.068Z,75.61
2023-11-12T17:46:32.997Z,76.44
2023-11-12T17:52:16.095Z,76.60
2023-11-12T17:57:46.596Z,75.76
2023-11-12T18:03:52.805Z,74.86
2023-11-12T18:09:53.722Z,74.91
2023-11-12T18:15:31.211Z,74.46
2023-11-12T18:20:59.707Z,77.62
2023-11-12T18:26:32.390Z,78.51
2023-11-12T18:32:07.869Z,78.65
2023-11-12T18:37:32.675Z,81.22
2023-11-12T18:43:17.930Z,79.58
2023-11-12T18:49:02.785Z,84.18
2023-11-12T18:54:31.288Z,81.63
2023-11-12T19:00:04.952Z,77.93
2023-11-12T19:05:50.715Z,78.40
2023-11-12T19:11:29.440Z,80.14
2023-11-12T19:17:12.488Z,78.49
2023-11-12T19:23:01.638Z,76.81
2023-11-12T19:29:01.517Z,76.06
2023-11-12T19:34:59.065Z,76.63
2023-11-12T19:40:30.222Z,74.94
2023-11-12T19:46:14.617Z,73.16
2023-11-12T19:52:04.166Z,74.99
2023-11-12T19:57:34.609Z,74.76
2023-11-12T20:03:25.604Z,76.77
2023-11-12T20:09:29.392Z,77.85
2023-11-12T20:15:18.299Z,77.17
2023-11-12T20:20:59.582Z,76.66
2023-11-12T20:26:38.472Z,77.03
2023-11-12T20:32:11.071Z,77.39
2023-11-12T20:37:58.025Z,79.29
2023-11-12T20:44:11.905Z,78.12
2023-11-12T20:50:28.879Z,78.36
2023-11-12T20:56:28.339Z,79.10
2023-11-12T21:02:24.661Z,79.54
2023-11-12T21:08:33.745Z,79.70
2023-11-12T21:14:06.287Z,81.40
2023-11-12T21:19:43.631Z,80.50
2023-11-12T21:25:25.816Z,78.99
2023-11-12T21:30:57.968Z,83.17
2023-11-12T21:36:37.490Z,87.39
2023-11-12T21:42:10.420Z,91.07
2023-11-12T21:47:37.278Z,90.98
2023-11-12T21:53:11.010Z,84.88
2023-11-12T21:58:54.786Z,84.32
2023-11-12T22:04:31.268Z,82.59
2023-11-12T22:10:50.781Z,86.84
2023-11-12T22:16:26.366Z,97.13
2023-11-12T22:22:01.269Z,90.81
2023-11-12T22:27:43.754Z,89.01
2023-11-12T22:33:42.694Z,95.39
2023-11-12T22:39:19.536Z,91.94
2023-11-12T22:44:55.608Z,89.27
2023-11-12T22:50:26.354Z,85.89
2023-11-12T22:56:03.768Z,84.19
2023-11-12T23:01:48.209Z,84.17
2023-11-12T23:13:07.794Z,84.62
2023-11-12T23:18:47.207Z,82.89
2023-11-12T23:24:19.551Z,85.21
2023-11-12T23:36:14.647Z,82.09
2023-11-12T23:41:57.403Z,88.03
2023-11-12T23:47:57.536Z,83.21
2023-11-12T23:53:32.728Z,82.18
2023-11-12T23:59:35.897Z,86.55
